Time;durP1;ratioP1;P1;durP2;ratioP2;P2;SDS_P1;SDS_P2;PMS_P1;PMS_P2;Temp;Humidity;BMP_temperature;BMP_pressure;BME280_temperature;BME280_humidity;BME280_pressure;Samples;Min_cycle;Max_cycle;Signal;HPM_P1;HPM_P2
2021/12/31 06:32:15;;;;;;;;;6.67;6.67;;;;;-144.69;100.00;61360.22;6196781;23;30657;-79
2021/12/31 06:34:40;;;;;;;;;7.67;7.00;;;;;-144.69;100.00;61360.22;6197741;23;32417;-78
2021/12/31 06:37:06;;;;;;;;;6.33;6.33;;;;;-144.69;100.00;61360.22;6198918;23;31558;-79
2021/12/31 06:39:31;;;;;;;;;7.67;6.00;;;;;-144.69;100.00;61360.22;6196104;23;32311;-78
2021/12/31 06:42:01;;;;;;;;;6.00;5.33;;;;;-144.69;100.00;61360.22;6198006;23;31803;-80
2021/12/31 06:44:26;;;;;;;;;8.00;8.00;;;;;-144.69;100.00;61360.22;6198020;23;32750;-82
2021/12/31 06:46:51;;;;;;;;;9.00;8.00;;;;;-144.69;100.00;61360.22;6197415;23;32122;-80
2021/12/31 06:49:17;;;;;;;;;10.00;8.00;;;;;-144.69;100.00;61360.22;6197658;23;32573;-82
2021/12/31 06:51:42;;;;;;;;;8.00;8.00;;;;;-144.69;100.00;61360.22;6197591;23;32545;-82
2021/12/31 06:54:07;;;;;;;;;14.00;11.00;;;;;-144.69;100.00;61360.22;6171824;23;32527;-81
2021/12/31 06:56:33;;;;;;;;;12.33;8.33;;;;;-144.69;100.00;61360.22;6198015;23;31876;-80
2021/12/31 06:58:58;;;;;;;;;4.67;4.67;;;;;-144.69;100.00;61360.22;6198084;23;33768;-80
2021/12/31 07:01:24;;;;;;;;;8.67;8.67;;;;;-144.69;100.00;61360.22;6198284;23;34014;-79
2021/12/31 07:03:50;;;;;;;;;13.67;10.67;;;;;-144.69;100.00;61360.22;6197375;23;35660;-79
2021/12/31 07:06:15;;;;;;;;;10.33;9.33;;;;;-144.69;100.00;61360.22;6195862;23;34730;-79
2021/12/31 07:08:41;;;;;;;;;9.33;9.00;;;;;-144.69;100.00;61360.22;6195346;23;35334;-80
2021/12/31 07:11:06;;;;;;;;;6.00;6.00;;;;;-144.69;100.00;61360.22;6193683;23;37103;-80
2021/12/31 07:13:32;;;;;;;;;8.67;7.67;;;;;-144.69;100.00;61360.22;6194078;23;36299;-80
2021/12/31 07:15:57;;;;;;;;;7.67;7.67;;;;;-144.69;100.00;61360.22;6192789;23;36839;-79
2021/12/31 07:18:23;;;;;;;;;8.33;8.33;;;;;-144.69;100.00;61360.22;6193402;23;37108;-80
2021/12/31 07:20:49;;;;;;;;;14.00;13.00;;;;;-144.69;100.00;61360.22;6193349;23;36373;-80
2021/12/31 07:23:17;;;;;;;;;11.00;9.00;;;;;-144.69;100.00;61360.22;6193718;23;36866;-79
2021/12/31 07:25:46;;;;;;;;;12.33;9.67;;;;;-144.69;100.00;61360.22;6193605;23;35720;-78
2021/12/31 07:28:14;;;;;;;;;12.00;10.00;;;;;-144.69;100.00;61360.22;6193208;23;37296;-79
2021/12/31 07:30:40;;;;;;;;;13.00;11.33;;;;;-144.69;100.00;61360.22;6191760;23;37282;-79
2021/12/31 07:33:06;;;;;;;;;16.00;13.00;;;;;-144.69;100.00;61360.22;6191589;23;38462;-81
2021/12/31 07:35:31;;;;;;;;;13.33;11.67;;;;;-144.69;100.00;61360.22;6192936;23;36173;-80
2021/12/31 07:37:59;;;;;;;;;11.67;11.67;;;;;-144.69;100.00;61360.22;6193193;23;36997;-79
2021/12/31 07:40:39;;;;;;;;;13.67;11.00;;;;;-144.69;100.00;61360.22;6193154;23;35305;-79
2021/12/31 07:43:06;;;;;;;;;12.67;11.33;;;;;-144.69;100.00;61360.22;6193383;23;35929;-79
2021/12/31 07:45:31;;;;;;;;;11.67;9.33;;;;;-144.69;100.00;61360.22;6192657;23;35165;-80
2021/12/31 07:47:57;;;;;;;;;8.67;8.00;;;;;-144.69;100.00;61360.22;6192756;23;36482;-78
2021/12/31 07:50:22;;;;;;;;;11.67;11.67;;;;;-144.69;100.00;61360.22;6192569;23;37743;-80
2021/12/31 07:52:47;;;;;;;;;14.00;12.67;;;;;-144.69;100.00;61360.22;6193640;23;37065;-79
2021/12/31 07:55:13;;;;;;;;;10.67;10.33;;;;;-144.69;100.00;61360.22;6193194;23;35794;-79
2021/12/31 07:57:38;;;;;;;;;10.33;10.33;;;;;-144.69;100.00;61360.22;6194371;23;36097;-79
2021/12/31 08:00:06;;;;;;;;;8.67;6.00;;;;;-144.69;100.00;61360.22;6194184;23;37102;-79
2021/12/31 08:02:31;;;;;;;;;6.00;6.00;;;;;-144.69;100.00;61360.22;6194478;23;35922;-80
2021/12/31 08:04:57;;;;;;;;;8.33;8.00;;;;;-144.69;100.00;61360.22;6193915;23;35121;-80
2021/12/31 08:07:22;;;;;;;;;8.00;8.00;;;;;-144.69;100.00;61360.22;6194732;23;35940;-80
